sensor_id;sensor_type;location;lat;lon;timestamp;temperature;humidity
14277;DHT22;7222;57.346;12.150;2022-07-30T00:00:28;15.90;99.90
14277;DHT22;7222;57.346;12.150;2022-07-30T00:03:04;15.70;99.90
14277;DHT22;7222;57.346;12.150;2022-07-30T00:05:33;15.60;99.90
14277;DHT22;7222;57.346;12.150;2022-07-30T00:08:00;15.40;99.90
14277;DHT22;7222;57.346;12.150;2022-07-30T00:10:27;15.40;99.90
14277;DHT22;7222;57.346;12.150;2022-07-30T00:12:55;15.20;99.90
14277;DHT22;7222;57.346;12.150;2022-07-30T00:15:22;15.10;99.90
14277;DHT22;7222;57.346;12.150;2022-07-30T00:17:49;15.00;99.90
14277;DHT22;7222;57.346;12.150;2022-07-30T00:20:17;14.90;99.90
14277;DHT22;7222;57.346;12.150;2022-07-30T00:22:45;14.80;99.90
14277;DHT22;7222;57.346;12.150;2022-07-30T00:25:13;14.80;99.90
14277;DHT22;7222;57.346;12.150;2022-07-30T00:27:41;14.80;99.90
14277;DHT22;7222;57.346;12.150;2022-07-30T00:30:09;14.70;99.90
14277;DHT22;7222;57.346;12.150;2022-07-30T00:32:37;14.60;99.90
14277;DHT22;7222;57.346;12.150;2022-07-30T00:35:05;14.60;99.90
14277;DHT22;7222;57.346;12.150;2022-07-30T00:37:32;14.50;99.90
14277;DHT22;7222;57.346;12.150;2022-07-30T00:40:01;14.50;99.90
14277;DHT22;7222;57.346;12.150;2022-07-30T00:42:36;14.50;99.90
14277;DHT22;7222;57.346;12.150;2022-07-30T00:45:05;14.50;99.90
14277;DHT22;7222;57.346;12.150;2022-07-30T00:47:32;14.50;99.90
14277;DHT22;7222;57.346;12.150;2022-07-30T00:49:59;14.50;99.90
14277;DHT22;7222;57.346;12.150;2022-07-30T00:52:29;14.40;99.90
14277;DHT22;7222;57.346;12.150;2022-07-30T00:54:56;14.40;99.90
14277;DHT22;7222;57.346;12.150;2022-07-30T00:57:25;14.40;99.90
14277;DHT22;7222;57.346;12.150;2022-07-30T00:59:52;14.30;99.90
14277;DHT22;7222;57.346;12.150;2022-07-30T01:02:19;14.30;99.90
14277;DHT22;7222;57.346;12.150;2022-07-30T01:04:47;14.30;99.90
14277;DHT22;7222;57.346;12.150;2022-07-30T01:07:14;14.40;99.90
14277;DHT22;7222;57.346;12.150;2022-07-30T01:09:41;14.50;99.90
14277;DHT22;7222;57.346;12.150;2022-07-30T01:12:09;14.50;99.90
14277;DHT22;7222;57.346;12.150;2022-07-30T01:14:38;14.60;99.90
14277;DHT22;7222;57.346;12.150;2022-07-30T01:17:05;14.50;99.90
14277;DHT22;7222;57.346;12.150;2022-07-30T01:19:35;14.30;99.90
14277;DHT22;7222;57.346;12.150;2022-07-30T01:22:34;14.30;99.90
14277;DHT22;7222;57.346;12.150;2022-07-30T01:25:11;14.30;99.90
14277;DHT22;7222;57.346;12.150;2022-07-30T01:27:44;14.30;99.90
14277;DHT22;7222;57.346;12.150;2022-07-30T01:30:16;14.20;99.90
14277;DHT22;7222;57.346;12.150;2022-07-30T01:32:46;14.20;99.90
14277;DHT22;7222;57.346;12.150;2022-07-30T01:35:14;14.20;99.90
14277;DHT22;7222;57.346;12.150;2022-07-30T01:37:43;14.10;99.90
14277;DHT22;7222;57.346;12.150;2022-07-30T01:40:12;14.10;99.90
14277;DHT22;7222;57.346;12.150;2022-07-30T01:42:42;14.10;99.90
14277;DHT22;7222;57.346;12.150;2022-07-30T01:45:10;14.00;99.90
14277;DHT22;7222;57.346;12.150;2022-07-30T01:47:40;13.90;99.90
14277;DHT22;7222;57.346;12.150;2022-07-30T01:50:11;13.90;99.90
14277;DHT22;7222;57.346;12.150;2022-07-30T01:52:41;13.90;99.90
14277;DHT22;7222;57.346;12.150;2022-07-30T01:55:15;13.80;99.90
14277;DHT22;7222;57.346;12.150;2022-07-30T01:57:46;13.70;99.90
14277;DHT22;7222;57.346;12.150;2022-07-30T02:00:14;13.70;99.90
14277;DHT22;7222;57.346;12.150;2022-07-30T02:02:42;13.60;99.90
14277;DHT22;7222;57.346;12.150;2022-07-30T02:05:09;13.60;99.90
14277;DHT22;7222;57.346;12.150;2022-07-30T02:07:39;13.50;99.90
14277;DHT22;7222;57.346;12.150;2022-07-30T02:10:12;13.50;99.90
14277;DHT22;7222;57.346;12.150;2022-07-30T02:12:45;13.40;99.90
14277;DHT22;7222;57.346;12.150;2022-07-30T02:15:19;13.40;99.90
14277;DHT22;7222;57.346;12.150;2022-07-30T02:17:55;13.30;99.90
14277;DHT22;7222;57.346;12.150;2022-07-30T02:20:26;13.30;99.90
14277;DHT22;7222;57.346;12.150;2022-07-30T02:22:56;13.20;99.90
14277;DHT22;7222;57.346;12.150;2022-07-30T02:25:25;13.20;99.90
14277;DHT22;7222;57.346;12.150;2022-07-30T02:27:56;13.10;99.90
14277;DHT22;7222;57.346;12.150;2022-07-30T02:30:26;13.10;99.90
14277;DHT22;7222;57.346;12.150;2022-07-30T02:33:01;13.00;99.90
14277;DHT22;7222;57.346;12.150;2022-07-30T02:35:29;13.00;99.90
14277;DHT22;7222;57.346;12.150;2022-07-30T02:37:57;12.90;99.90
14277;DHT22;7222;57.346;12.150;2022-07-30T02:40:26;12.80;99.90
14277;DHT22;7222;57.346;12.150;2022-07-30T02:42:54;12.80;99.90
14277;DHT22;7222;57.346;12.150;2022-07-30T02:45:24;12.70;99.90
14277;DHT22;7222;57.346;12.150;2022-07-30T02:47:58;12.70;99.90
14277;DHT22;7222;57.346;12.150;2022-07-30T02:50:27;12.70;99.90
14277;DHT22;7222;57.346;12.150;2022-07-30T02:52:55;12.60;99.90
14277;DHT22;7222;57.346;12.150;2022-07-30T02:55:24;12.60;99.90
14277;DHT22;7222;57.346;12.150;2022-07-30T02:57:54;12.50;99.90
14277;DHT22;7222;57.346;12.150;2022-07-30T03:00:23;12.40;99.90
14277;DHT22;7222;57.346;12.150;2022-07-30T03:02:52;12.40;99.90
14277;DHT22;7222;57.346;12.150;2022-07-30T03:05:20;12.30;99.90
14277;DHT22;7222;57.346;12.150;2022-07-30T03:07:47;12.30;99.90
14277;DHT22;7222;57.346;12.150;2022-07-30T03:10:16;12.30;99.90
14277;DHT22;7222;57.346;12.150;2022-07-30T03:12:44;12.20;99.90
14277;DHT22;7222;57.346;12.150;2022-07-30T03:15:13;12.20;99.90
14277;DHT22;7222;57.346;12.150;2022-07-30T03:17:44;12.20;99.90
14277;DHT22;7222;57.346;12.150;2022-07-30T03:20:14;12.10;99.90
14277;DHT22;7222;57.346;12.150;2022-07-30T03:22:43;12.10;99.90
14277;DHT22;7222;57.346;12.150;2022-07-30T03:25:14;12.00;99.90
14277;DHT22;7222;57.346;12.150;2022-07-30T03:27:42;12.00;99.90
14277;DHT22;7222;57.346;12.150;2022-07-30T03:30:12;12.00;99.90
14277;DHT22;7222;57.346;12.150;2022-07-30T03:32:40;11.90;99.90
14277;DHT22;7222;57.346;12.150;2022-07-30T03:35:09;12.00;99.90
14277;DHT22;7222;57.346;12.150;2022-07-30T03:37:38;11.90;99.90
14277;DHT22;7222;57.346;12.150;2022-07-30T03:40:07;11.90;99.90
14277;DHT22;7222;57.346;12.150;2022-07-30T03:42:34;11.90;99.90
14277;DHT22;7222;57.346;12.150;2022-07-30T03:45:03;11.90;99.90
14277;DHT22;7222;57.346;12.150;2022-07-30T03:47:35;11.90;99.90
14277;DHT22;7222;57.346;12.150;2022-07-30T03:50:04;11.80;99.90
14277;DHT22;7222;57.346;12.150;2022-07-30T03:52:33;11.70;99.90
14277;DHT22;7222;57.346;12.150;2022-07-30T03:55:01;11.70;99.90
14277;DHT22;7222;57.346;12.150;2022-07-30T03:57:29;11.70;99.90
14277;DHT22;7222;57.346;12.150;2022-07-30T03:59:56;11.70;99.90
14277;DHT22;7222;57.346;12.150;2022-07-30T04:02:23;11.90;99.90
14277;DHT22;7222;57.346;12.150;2022-07-30T04:04:52;11.70;99.90
14277;DHT22;7222;57.346;12.150;2022-07-30T04:07:19;11.70;99.90
14277;DHT22;7222;57.346;12.150;2022-07-30T04:09:46;11.70;99.90
14277;DHT22;7222;57.346;12.150;2022-07-30T04:12:13;11.90;99.90
14277;DHT22;7222;57.346;12.150;2022-07-30T04:14:41;12.10;99.90
14277;DHT22;7222;57.346;12.150;2022-07-30T04:17:12;12.10;99.90
14277;DHT22;7222;57.346;12.150;2022-07-30T04:19:45;11.80;99.90
14277;DHT22;7222;57.346;12.150;2022-07-30T04:22:17;11.70;99.90
14277;DHT22;7222;57.346;12.150;2022-07-30T04:24:47;11.80;99.90
14277;DHT22;7222;57.346;12.150;2022-07-30T04:27:17;12.00;99.90
14277;DHT22;7222;57.346;12.150;2022-07-30T04:29:44;12.00;99.90
14277;DHT22;7222;57.346;12.150;2022-07-30T04:32:12;12.20;99.90
14277;DHT22;7222;57.346;12.150;2022-07-30T04:34:45;12.20;99.90
14277;DHT22;7222;57.346;12.150;2022-07-30T04:37:16;12.40;99.90
14277;DHT22;7222;57.346;12.150;2022-07-30T04:39:44;12.40;99.90
14277;DHT22;7222;57.346;12.150;2022-07-30T04:42:14;12.50;99.90
14277;DHT22;7222;57.346;12.150;2022-07-30T04:44:41;12.50;99.90
14277;DHT22;7222;57.346;12.150;2022-07-30T04:47:08;12.60;99.90
14277;DHT22;7222;57.346;12.150;2022-07-30T04:49:35;12.60;99.90
14277;DHT22;7222;57.346;12.150;2022-07-30T04:52:03;12.70;99.90
14277;DHT22;7222;57.346;12.150;2022-07-30T04:54:37;12.90;99.90
14277;DHT22;7222;57.346;12.150;2022-07-30T04:57:07;13.00;99.90
14277;DHT22;7222;57.346;12.150;2022-07-30T04:59:35;13.00;99.90
14277;DHT22;7222;57.346;12.150;2022-07-30T05:02:03;13.10;99.90
14277;DHT22;7222;57.346;12.150;2022-07-30T05:04:32;13.10;99.90
14277;DHT22;7222;57.346;12.150;2022-07-30T05:07:00;13.30;99.90
14277;DHT22;7222;57.346;12.150;2022-07-30T05:09:28;13.30;99.90
14277;DHT22;7222;57.346;12.150;2022-07-30T05:11:57;13.40;99.90
14277;DHT22;7222;57.346;12.150;2022-07-30T05:14:25;13.50;99.90
14277;DHT22;7222;57.346;12.150;2022-07-30T05:16:53;13.60;99.90
14277;DHT22;7222;57.346;12.150;2022-07-30T05:19:21;13.70;99.90
14277;DHT22;7222;57.346;12.150;2022-07-30T05:21:50;13.60;99.90
14277;DHT22;7222;57.346;12.150;2022-07-30T05:24:17;13.80;99.90
14277;DHT22;7222;57.346;12.150;2022-07-30T05:26:44;14.00;99.90
14277;DHT22;7222;57.346;12.150;2022-07-30T05:29:12;13.90;99.90
14277;DHT22;7222;57.346;12.150;2022-07-30T05:31:40;14.20;99.90
14277;DHT22;7222;57.346;12.150;2022-07-30T05:34:07;14.30;99.90
14277;DHT22;7222;57.346;12.150;2022-07-30T05:36:34;14.30;99.90
14277;DHT22;7222;57.346;12.150;2022-07-30T05:39:02;14.60;99.90
14277;DHT22;7222;57.346;12.150;2022-07-30T05:41:29;14.70;99.90
14277;DHT22;7222;57.346;12.150;2022-07-30T05:43:56;14.70;99.90
14277;DHT22;7222;57.346;12.150;2022-07-30T05:46:24;14.90;99.90
14277;DHT22;7222;57.346;12.150;2022-07-30T05:48:51;15.00;99.90
14277;DHT22;7222;57.346;12.150;2022-07-30T05:51:18;15.10;99.90
14277;DHT22;7222;57.346;12.150;2022-07-30T05:53:46;15.20;99.90
14277;DHT22;7222;57.346;12.150;2022-07-30T05:56:13;15.30;99.90
14277;DHT22;7222;57.346;12.150;2022-07-30T05:58:40;15.30;99.90
14277;DHT22;7222;57.346;12.150;2022-07-30T06:01:08;15.40;99.90
14277;DHT22;7222;57.346;12.150;2022-07-30T06:03:37;15.50;99.90
14277;DHT22;7222;57.346;12.150;2022-07-30T06:06:06;15.50;99.90
14277;DHT22;7222;57.346;12.150;2022-07-30T06:08:33;15.60;99.90
14277;DHT22;7222;57.346;12.150;2022-07-30T06:11:00;15.70;99.90
14277;DHT22;7222;57.346;12.150;2022-07-30T06:13:27;15.90;99.90
14277;DHT22;7222;57.346;12.150;2022-07-30T06:15:54;16.00;99.90
14277;DHT22;7222;57.346;12.150;2022-07-30T06:18:21;16.10;99.90
14277;DHT22;7222;57.346;12.150;2022-07-30T06:20:50;16.20;99.90
14277;DHT22;7222;57.346;12.150;2022-07-30T06:23:19;16.20;99.90
14277;DHT22;7222;57.346;12.150;2022-07-30T06:25:46;16.30;99.90
14277;DHT22;7222;57.346;12.150;2022-07-30T06:28:13;16.40;99.90
14277;DHT22;7222;57.346;12.150;2022-07-30T06:30:40;16.50;99.90
14277;DHT22;7222;57.346;12.150;2022-07-30T06:33:10;16.50;99.90
14277;DHT22;7222;57.346;12.150;2022-07-30T06:35:37;16.70;99.90
14277;DHT22;7222;57.346;12.150;2022-07-30T06:38:06;16.80;99.90
14277;DHT22;7222;57.346;12.150;2022-07-30T06:40:33;16.70;99.90
14277;DHT22;7222;57.346;12.150;2022-07-30T06:43:00;16.80;99.90
14277;DHT22;7222;57.346;12.150;2022-07-30T06:45:29;17.00;99.90
14277;DHT22;7222;57.346;12.150;2022-07-30T06:47:56;17.10;99.90
14277;DHT22;7222;57.346;12.150;2022-07-30T06:50:24;17.30;99.90
14277;DHT22;7222;57.346;12.150;2022-07-30T06:52:51;17.50;99.90
14277;DHT22;7222;57.346;12.150;2022-07-30T06:55:20;17.60;99.90
14277;DHT22;7222;57.346;12.150;2022-07-30T06:57:47;17.80;99.90
14277;DHT22;7222;57.346;12.150;2022-07-30T07:00:15;17.80;99.90
14277;DHT22;7222;57.346;12.150;2022-07-30T07:02:42;17.90;99.90
14277;DHT22;7222;57.346;12.150;2022-07-30T07:05:09;18.10;99.90
14277;DHT22;7222;57.346;12.150;2022-07-30T07:07:36;17.90;99.90
14277;DHT22;7222;57.346;12.150;2022-07-30T07:10:06;17.90;99.90
14277;DHT22;7222;57.346;12.150;2022-07-30T07:12:35;18.00;99.90
14277;DHT22;7222;57.346;12.150;2022-07-30T07:15:03;18.10;99.90
14277;DHT22;7222;57.346;12.150;2022-07-30T07:17:30;18.10;99.90
14277;DHT22;7222;57.346;12.150;2022-07-30T07:19:57;18.50;99.90
14277;DHT22;7222;57.346;12.150;2022-07-30T07:22:25;18.60;99.90
14277;DHT22;7222;57.346;12.150;2022-07-30T07:24:52;18.40;99.90
14277;DHT22;7222;57.346;12.150;2022-07-30T07:27:19;18.30;99.90
14277;DHT22;7222;57.346;12.150;2022-07-30T07:29:47;18.60;99.90
14277;DHT22;7222;57.346;12.150;2022-07-30T07:32:15;18.70;99.90
14277;DHT22;7222;57.346;12.150;2022-07-30T07:34:42;19.10;99.90
14277;DHT22;7222;57.346;12.150;2022-07-30T07:37:08;19.00;99.90
14277;DHT22;7222;57.346;12.150;2022-07-30T07:39:36;19.50;99.90
14277;DHT22;7222;57.346;12.150;2022-07-30T07:42:03;19.70;99.90
14277;DHT22;7222;57.346;12.150;2022-07-30T07:44:30;19.60;99.90
14277;DHT22;7222;57.346;12.150;2022-07-30T07:46:58;19.70;99.90
14277;DHT22;7222;57.346;12.150;2022-07-30T07:49:26;20.10;99.90
14277;DHT22;7222;57.346;12.150;2022-07-30T07:51:53;20.50;99.90
14277;DHT22;7222;57.346;12.150;2022-07-30T07:54:20;20.50;99.90
14277;DHT22;7222;57.346;12.150;2022-07-30T07:56:47;20.40;99.90
14277;DHT22;7222;57.346;12.150;2022-07-30T07:59:16;20.70;99.90
14277;DHT22;7222;57.346;12.150;2022-07-30T08:01:43;21.20;99.90
14277;DHT22;7222;57.346;12.150;2022-07-30T08:04:12;21.60;99.90
14277;DHT22;7222;57.346;12.150;2022-07-30T08:06:39;21.30;99.90
14277;DHT22;7222;57.346;12.150;2022-07-30T08:09:06;21.60;99.90
14277;DHT22;7222;57.346;12.150;2022-07-30T08:11:33;21.00;99.90
14277;DHT22;7222;57.346;12.150;2022-07-30T08:14:00;21.00;99.90
14277;DHT22;7222;57.346;12.150;2022-07-30T08:16:27;21.20;99.90
14277;DHT22;7222;57.346;12.150;2022-07-30T08:18:54;21.10;99.90
14277;DHT22;7222;57.346;12.150;2022-07-30T08:21:23;20.70;99.90
14277;DHT22;7222;57.346;12.150;2022-07-30T08:23:50;21.30;99.90
14277;DHT22;7222;57.346;12.150;2022-07-30T08:26:17;22.10;99.90
14277;DHT22;7222;57.346;12.150;2022-07-30T08:28:44;21.50;99.90
14277;DHT22;7222;57.346;12.150;2022-07-30T08:31:11;22.20;99.90
14277;DHT22;7222;57.346;12.150;2022-07-30T08:33:38;22.20;99.90
14277;DHT22;7222;57.346;12.150;2022-07-30T08:36:05;21.70;99.90
14277;DHT22;7222;57.346;12.150;2022-07-30T08:38:34;22.10;99.90
14277;DHT22;7222;57.346;12.150;2022-07-30T08:41:01;22.60;99.90
14277;DHT22;7222;57.346;12.150;2022-07-30T08:43:28;23.20;99.90
14277;DHT22;7222;57.346;12.150;2022-07-30T08:45:55;22.90;99.90
14277;DHT22;7222;57.346;12.150;2022-07-30T08:48:22;25.10;99.90
14277;DHT22;7222;57.346;12.150;2022-07-30T08:50:51;24.40;99.90
14277;DHT22;7222;57.346;12.150;2022-07-30T08:53:18;24.10;99.90
14277;DHT22;7222;57.346;12.150;2022-07-30T08:55:47;23.60;99.90
14277;DHT22;7222;57.346;12.150;2022-07-30T08:58:22;23.00;99.90
14277;DHT22;7222;57.346;12.150;2022-07-30T09:00:52;23.90;99.90
14277;DHT22;7222;57.346;12.150;2022-07-30T09:03:20;23.80;99.90
14277;DHT22;7222;57.346;12.150;2022-07-30T09:05:47;24.90;99.90
14277;DHT22;7222;57.346;12.150;2022-07-30T09:08:14;26.00;99.90
14277;DHT22;7222;57.346;12.150;2022-07-30T09:10:41;25.60;99.90
14277;DHT22;7222;57.346;12.150;2022-07-30T09:13:24;24.90;99.90
14277;DHT22;7222;57.346;12.150;2022-07-30T09:15:51;25.50;99.90
14277;DHT22;7222;57.346;12.150;2022-07-30T09:18:29;25.40;99.90
14277;DHT22;7222;57.346;12.150;2022-07-30T09:20:58;26.70;99.90
14277;DHT22;7222;57.346;12.150;2022-07-30T09:23:25;25.40;99.90
14277;DHT22;7222;57.346;12.150;2022-07-30T09:25:52;24.50;99.90
14277;DHT22;7222;57.346;12.150;2022-07-30T09:28:28;25.20;99.90
14277;DHT22;7222;57.346;12.150;2022-07-30T09:30:56;24.60;99.90
14277;DHT22;7222;57.346;12.150;2022-07-30T09:33:32;25.50;99.90
14277;DHT22;7222;57.346;12.150;2022-07-30T09:35:59;26.80;99.90
14277;DHT22;7222;57.346;12.150;2022-07-30T09:38:28;26.90;99.90
14277;DHT22;7222;57.346;12.150;2022-07-30T09:40:57;25.10;99.90
14277;DHT22;7222;57.346;12.150;2022-07-30T09:43:25;24.50;99.90
14277;DHT22;7222;57.346;12.150;2022-07-30T09:45:54;25.70;99.90
14277;DHT22;7222;57.346;12.150;2022-07-30T09:48:24;26.20;99.90
14277;DHT22;7222;57.346;12.150;2022-07-30T09:50:52;24.10;99.90
14277;DHT22;7222;57.346;12.150;2022-07-30T09:53:20;23.90;99.90
14277;DHT22;7222;57.346;12.150;2022-07-30T09:55:48;24.00;99.90
14277;DHT22;7222;57.346;12.150;2022-07-30T09:58:15;23.20;99.90
14277;DHT22;7222;57.346;12.150;2022-07-30T10:00:43;24.90;99.90
14277;DHT22;7222;57.346;12.150;2022-07-30T10:03:16;24.30;99.90
14277;DHT22;7222;57.346;12.150;2022-07-30T10:05:50;25.90;99.90
14277;DHT22;7222;57.346;12.150;2022-07-30T10:08:17;24.70;99.90
14277;DHT22;7222;57.346;12.150;2022-07-30T10:10:45;24.50;99.90
14277;DHT22;7222;57.346;12.150;2022-07-30T10:13:15;24.50;99.90
14277;DHT22;7222;57.346;12.150;2022-07-30T10:15:45;24.10;99.90
14277;DHT22;7222;57.346;12.150;2022-07-30T10:18:12;24.10;99.90
14277;DHT22;7222;57.346;12.150;2022-07-30T10:20:42;24.20;99.90
14277;DHT22;7222;57.346;12.150;2022-07-30T10:23:09;24.00;99.90
14277;DHT22;7222;57.346;12.150;2022-07-30T10:25:36;23.30;99.90
14277;DHT22;7222;57.346;12.150;2022-07-30T10:28:04;25.20;99.90
14277;DHT22;7222;57.346;12.150;2022-07-30T10:30:31;24.40;99.90
14277;DHT22;7222;57.346;12.150;2022-07-30T10:33:00;25.50;99.90
14277;DHT22;7222;57.346;12.150;2022-07-30T10:35:28;26.20;99.90
14277;DHT22;7222;57.346;12.150;2022-07-30T10:37:58;25.80;99.90
14277;DHT22;7222;57.346;12.150;2022-07-30T10:40:28;26.70;99.90
14277;DHT22;7222;57.346;12.150;2022-07-30T10:43:16;29.20;99.90
14277;DHT22;7222;57.346;12.150;2022-07-30T10:45:54;29.00;99.90
14277;DHT22;7222;57.346;12.150;2022-07-30T10:48:23;26.80;1.00
14277;DHT22;7222;57.346;12.150;2022-07-30T10:50:52;29.00;99.90
14277;DHT22;7222;57.346;12.150;2022-07-30T10:53:35;28.30;99.90
14277;DHT22;7222;57.346;12.150;2022-07-30T10:56:16;28.00;99.90
14277;DHT22;7222;57.346;12.150;2022-07-30T10:58:58;28.60;99.90
14277;DHT22;7222;57.346;12.150;2022-07-30T11:01:25;28.60;99.90
14277;DHT22;7222;57.346;12.150;2022-07-30T11:04:19;29.20;99.90
14277;DHT22;7222;57.346;12.150;2022-07-30T11:06:47;29.60;99.90
14277;DHT22;7222;57.346;12.150;2022-07-30T11:09:37;28.50;1.00
14277;DHT22;7222;57.346;12.150;2022-07-30T11:12:06;27.60;1.00
14277;DHT22;7222;57.346;12.150;2022-07-30T11:14:56;28.40;1.00
14277;DHT22;7222;57.346;12.150;2022-07-30T11:17:24;26.20;1.00
14277;DHT22;7222;57.346;12.150;2022-07-30T11:20:10;26.10;1.00
14277;DHT22;7222;57.346;12.150;2022-07-30T11:22:38;26.00;99.90
14277;DHT22;7222;57.346;12.150;2022-07-30T11:25:08;28.60;99.90
14277;DHT22;7222;57.346;12.150;2022-07-30T11:27:39;27.60;99.90
14277;DHT22;7222;57.346;12.150;2022-07-30T11:30:29;26.90;1.00
14277;DHT22;7222;57.346;12.150;2022-07-30T11:33:20;27.50;1.00
14277;DHT22;7222;57.346;12.150;2022-07-30T11:36:04;29.00;1.00
14277;DHT22;7222;57.346;12.150;2022-07-30T11:38:49;29.80;99.90
14277;DHT22;7222;57.346;12.150;2022-07-30T11:41:18;28.80;68.20
14277;DHT22;7222;57.346;12.150;2022-07-30T11:43:45;26.70;1.00
14277;DHT22;7222;57.346;12.150;2022-07-30T11:46:13;27.90;1.00
14277;DHT22;7222;57.346;12.150;2022-07-30T11:48:54;27.10;1.00
14277;DHT22;7222;57.346;12.150;2022-07-30T11:51:21;27.50;1.00
14277;DHT22;7222;57.346;12.150;2022-07-30T11:53:59;28.10;1.00
14277;DHT22;7222;57.346;12.150;2022-07-30T11:56:28;27.50;1.00
14277;DHT22;7222;57.346;12.150;2022-07-30T11:59:00;27.90;99.90
14277;DHT22;7222;57.346;12.150;2022-07-30T12:01:28;26.40;99.90
14277;DHT22;7222;57.346;12.150;2022-07-30T12:04:01;26.30;99.90
14277;DHT22;7222;57.346;12.150;2022-07-30T12:06:28;26.60;1.00
14277;DHT22;7222;57.346;12.150;2022-07-30T12:08:57;26.20;99.90
14277;DHT22;7222;57.346;12.150;2022-07-30T12:11:24;26.30;99.90
14277;DHT22;7222;57.346;12.150;2022-07-30T12:13:57;25.40;99.90
14277;DHT22;7222;57.346;12.150;2022-07-30T12:16:25;25.00;99.90
14277;DHT22;7222;57.346;12.150;2022-07-30T12:18:53;24.60;99.90
14277;DHT22;7222;57.346;12.150;2022-07-30T12:21:20;24.80;99.90
14277;DHT22;7222;57.346;12.150;2022-07-30T12:23:54;25.70;99.90
14277;DHT22;7222;57.346;12.150;2022-07-30T12:26:23;27.60;99.90
14277;DHT22;7222;57.346;12.150;2022-07-30T12:28:51;24.90;99.90
14277;DHT22;7222;57.346;12.150;2022-07-30T12:31:21;25.50;99.90
14277;DHT22;7222;57.346;12.150;2022-07-30T12:33:48;26.70;99.90
14277;DHT22;7222;57.346;12.150;2022-07-30T12:36:26;27.00;99.90
14277;DHT22;7222;57.346;12.150;2022-07-30T12:38:54;27.00;99.90
14277;DHT22;7222;57.346;12.150;2022-07-30T12:41:22;25.50;38.30
14277;DHT22;7222;57.346;12.150;2022-07-30T12:43:51;25.00;99.90
14277;DHT22;7222;57.346;12.150;2022-07-30T12:46:20;25.00;85.80
14277;DHT22;7222;57.346;12.150;2022-07-30T12:48:49;26.20;99.90
14277;DHT22;7222;57.346;12.150;2022-07-30T12:51:17;25.50;99.90
14277;DHT22;7222;57.346;12.150;2022-07-30T12:53:44;27.20;99.90
14277;DHT22;7222;57.346;12.150;2022-07-30T12:56:12;25.70;28.10
14277;DHT22;7222;57.346;12.150;2022-07-30T12:58:40;25.10;89.40
14277;DHT22;7222;57.346;12.150;2022-07-30T13:01:08;25.70;80.50
14277;DHT22;7222;57.346;12.150;2022-07-30T13:03:38;27.70;99.90
14277;DHT22;7222;57.346;12.150;2022-07-30T13:06:16;26.60;30.50
14277;DHT22;7222;57.346;12.150;2022-07-30T13:08:50;25.90;59.40
14277;DHT22;7222;57.346;12.150;2022-07-30T13:11:18;25.80;62.60
14277;DHT22;7222;57.346;12.150;2022-07-30T13:13:46;26.20;18.30
14277;DHT22;7222;57.346;12.150;2022-07-30T13:16:13;26.40;51.80
14277;DHT22;7222;57.346;12.150;2022-07-30T13:18:42;26.20;1.00
14277;DHT22;7222;57.346;12.150;2022-07-30T13:21:09;25.70;46.00
14277;DHT22;7222;57.346;12.150;2022-07-30T13:23:37;27.00;26.70
14277;DHT22;7222;57.346;12.150;2022-07-30T13:26:06;28.90;77.60
14277;DHT22;7222;57.346;12.150;2022-07-30T13:28:33;29.40;99.90
14277;DHT22;7222;57.346;12.150;2022-07-30T13:31:00;29.40;99.90
14277;DHT22;7222;57.346;12.150;2022-07-30T13:33:27;28.00;1.00
14277;DHT22;7222;57.346;12.150;2022-07-30T13:35:56;27.20;1.00
14277;DHT22;7222;57.346;12.150;2022-07-30T13:38:23;27.70;1.00
14277;DHT22;7222;57.346;12.150;2022-07-30T13:40:51;26.80;99.90
14277;DHT22;7222;57.346;12.150;2022-07-30T13:43:18;27.00;90.70
14277;DHT22;7222;57.346;12.150;2022-07-30T13:45:46;27.60;1.00
14277;DHT22;7222;57.346;12.150;2022-07-30T13:48:13;26.70;48.80
14277;DHT22;7222;57.346;12.150;2022-07-30T13:50:40;26.20;1.00
14277;DHT22;7222;57.346;12.150;2022-07-30T13:53:09;26.00;1.00
14277;DHT22;7222;57.346;12.150;2022-07-30T13:55:36;26.10;99.90
14277;DHT22;7222;57.346;12.150;2022-07-30T13:58:04;27.40;99.90
14277;DHT22;7222;57.346;12.150;2022-07-30T14:00:32;29.30;1.00
14277;DHT22;7222;57.346;12.150;2022-07-30T14:03:02;28.00;1.00
14277;DHT22;7222;57.346;12.150;2022-07-30T14:05:29;27.40;1.00
14277;DHT22;7222;57.346;12.150;2022-07-30T14:07:58;26.90;1.00
14277;DHT22;7222;57.346;12.150;2022-07-30T14:10:26;26.90;99.90
14277;DHT22;7222;57.346;12.150;2022-07-30T14:12:54;26.90;1.00
14277;DHT22;7222;57.346;12.150;2022-07-30T14:15:21;26.90;46.20
14277;DHT22;7222;57.346;12.150;2022-07-30T14:17:48;25.70;1.00
14277;DHT22;7222;57.346;12.150;2022-07-30T14:20:16;27.60;1.00
14277;DHT22;7222;57.346;12.150;2022-07-30T14:22:43;28.10;60.20
14277;DHT22;7222;57.346;12.150;2022-07-30T14:25:10;27.60;1.00
14277;DHT22;7222;57.346;12.150;2022-07-30T14:27:39;27.80;1.00
14277;DHT22;7222;57.346;12.150;2022-07-30T14:30:08;27.90;1.00
14277;DHT22;7222;57.346;12.150;2022-07-30T14:32:35;27.10;1.00
14277;DHT22;7222;57.346;12.150;2022-07-30T14:35:02;27.50;1.00
14277;DHT22;7222;57.346;12.150;2022-07-30T14:37:30;25.40;1.00
14277;DHT22;7222;57.346;12.150;2022-07-30T14:39:56;24.80;1.00
14277;DHT22;7222;57.346;12.150;2022-07-30T14:42:23;24.70;1.00
14277;DHT22;7222;57.346;12.150;2022-07-30T14:44:52;24.90;1.00
14277;DHT22;7222;57.346;12.150;2022-07-30T14:47:19;25.80;1.00
14277;DHT22;7222;57.346;12.150;2022-07-30T14:49:46;25.70;1.00
14277;DHT22;7222;57.346;12.150;2022-07-30T14:52:13;25.50;1.00
14277;DHT22;7222;57.346;12.150;2022-07-30T14:54:40;24.70;1.00
14277;DHT22;7222;57.346;12.150;2022-07-30T14:57:07;25.10;1.00
14277;DHT22;7222;57.346;12.150;2022-07-30T14:59:34;25.50;1.00
14277;DHT22;7222;57.346;12.150;2022-07-30T15:02:03;25.50;1.00
14277;DHT22;7222;57.346;12.150;2022-07-30T15:04:30;24.90;1.00
14277;DHT22;7222;57.346;12.150;2022-07-30T15:06:57;24.70;1.00
14277;DHT22;7222;57.346;12.150;2022-07-30T15:09:24;24.30;1.00
14277;DHT22;7222;57.346;12.150;2022-07-30T15:11:51;25.00;1.00
14277;DHT22;7222;57.346;12.150;2022-07-30T15:14:18;25.10;99.90
14277;DHT22;7222;57.346;12.150;2022-07-30T15:16:45;25.90;1.00
14277;DHT22;7222;57.346;12.150;2022-07-30T15:19:13;26.10;1.00
14277;DHT22;7222;57.346;12.150;2022-07-30T15:21:40;26.30;1.00
14277;DHT22;7222;57.346;12.150;2022-07-30T15:24:09;26.60;1.00
14277;DHT22;7222;57.346;12.150;2022-07-30T15:26:36;27.10;1.00
14277;DHT22;7222;57.346;12.150;2022-07-30T15:29:03;27.70;1.00
14277;DHT22;7222;57.346;12.150;2022-07-30T15:31:31;27.40;1.00
14277;DHT22;7222;57.346;12.150;2022-07-30T15:33:58;26.50;1.00
14277;DHT22;7222;57.346;12.150;2022-07-30T15:36:26;27.30;1.00
14277;DHT22;7222;57.346;12.150;2022-07-30T15:38:53;26.40;1.00
14277;DHT22;7222;57.346;12.150;2022-07-30T15:41:20;26.70;1.00
14277;DHT22;7222;57.346;12.150;2022-07-30T15:43:48;26.20;1.00